createdAt,value
2022-12-12T00:02:36.628Z,99120.02
2022-12-12T00:07:42.500Z,99116.99
2022-12-12T00:12:48.968Z,99108.90
2022-12-12T00:17:54.670Z,99106.20
2022-12-12T00:23:00.598Z,99105.48
2022-12-12T00:28:06.606Z,99113.59
2022-12-12T00:33:12.953Z,99117.84
2022-12-12T00:38:19.354Z,99110.73
2022-12-12T00:43:25.614Z,99112.41
2022-12-12T00:48:32.308Z,99111.20
2022-12-12T00:53:39.112Z,99101.83
2022-12-12T00:58:45.013Z,99093.52
2022-12-12T01:03:51.706Z,99091.99
2022-12-12T01:08:57.705Z,99095.71
2022-12-12T01:14:04.105Z,99094.18
2022-12-12T01:19:09.965Z,99084.19
2022-12-12T01:24:15.696Z,99077.43
2022-12-12T01:29:21.338Z,99075.37
2022-12-12T01:34:27.156Z,99072.13
2022-12-12T01:39:32.818Z,99069.95
2022-12-12T01:44:45.774Z,99066.73
2022-12-12T01:49:55.992Z,99057.88
2022-12-12T01:55:05.374Z,99053.10
2022-12-12T02:00:22.094Z,99054.47
2022-12-12T02:05:33.504Z,99057.23
2022-12-12T02:10:39.373Z,99055.73
2022-12-12T02:15:55.386Z,99056.75
2022-12-12T02:21:15.581Z,99059.95
2022-12-12T02:26:54.724Z,99062.33
2022-12-12T02:32:08.620Z,99057.73
2022-12-12T02:37:22.574Z,99058.07
2022-12-12T02:42:35.835Z,99065.22
2022-12-12T02:47:47.165Z,99063.73
2022-12-12T02:52:53.021Z,99067.51
2022-12-12T02:57:59.858Z,99067.02
2022-12-12T03:03:39.868Z,99067.02
2022-12-12T03:08:59.162Z,99061.45
2022-12-12T03:14:11.978Z,99057.40
2022-12-12T03:19:25.295Z,99056.73
2022-12-12T03:24:38.973Z,99051.93
2022-12-12T03:29:49.721Z,99045.13
2022-12-12T03:35:00.395Z,99041.23
2022-12-12T03:40:10.287Z,99039.22
2022-12-12T03:45:22.988Z,99036.68
2022-12-12T03:50:33.530Z,99034.98
2022-12-12T03:55:45.888Z,99034.83
2022-12-12T04:00:55.349Z,99032.67
2022-12-12T04:06:26.226Z,99032.70
2022-12-12T04:11:53.962Z,99027.09
2022-12-12T04:17:04.478Z,99020.11
2022-12-12T04:22:38.411Z,99017.20
2022-12-12T04:27:50.371Z,99014.67
2022-12-12T04:33:03.459Z,99012.52
2022-12-12T04:38:13.673Z,99008.30
2022-12-12T04:43:22.500Z,99003.05
2022-12-12T04:48:35.701Z,98998.13
2022-12-12T04:53:48.623Z,98996.97
2022-12-12T04:58:54.500Z,98990.21
2022-12-12T05:04:08.596Z,98984.82
2022-12-12T05:09:18.691Z,98987.91
2022-12-12T05:14:24.622Z,98988.09
2022-12-12T05:19:30.393Z,98980.31
2022-12-12T05:24:36.084Z,98972.69
2022-12-12T05:29:42.138Z,98969.30
2022-12-12T05:34:47.977Z,98969.65
2022-12-12T05:39:53.703Z,98969.14
2022-12-12T05:44:59.512Z,98964.23
2022-12-12T05:50:06.394Z,98962.90
2022-12-12T05:55:12.639Z,98963.08
2022-12-12T06:00:19.559Z,98963.23
2022-12-12T06:05:25.856Z,98961.21
2022-12-12T06:10:31.540Z,98961.55
2022-12-12T06:15:40.643Z,98964.78
2022-12-12T06:20:46.351Z,98971.60
2022-12-12T06:25:52.550Z,98969.41
2022-12-12T06:30:58.366Z,98969.91
2022-12-12T06:36:07.436Z,98968.73
2022-12-12T06:41:15.139Z,98973.50
2022-12-12T06:46:24.308Z,98979.80
2022-12-12T06:51:36.792Z,98982.19
2022-12-12T06:56:48.037Z,98980.66
2022-12-12T07:01:56.900Z,98979.48
2022-12-12T07:07:03.350Z,98982.05
2022-12-12T07:12:09.376Z,98977.27
2022-12-12T07:17:15.105Z,98977.60
2022-12-12T07:22:20.979Z,98978.63
2022-12-12T07:27:26.721Z,98978.95
2022-12-12T07:32:32.402Z,98985.42
2022-12-12T07:37:38.017Z,98987.45
2022-12-12T07:42:43.602Z,98991.36
2022-12-12T07:47:49.594Z,98992.21
2022-12-12T07:52:55.485Z,98994.74
2022-12-12T07:58:01.460Z,98989.10
2022-12-12T08:03:07.321Z,98990.28
2022-12-12T08:08:13.252Z,98990.78
2022-12-12T08:13:18.964Z,98990.23
2022-12-12T08:18:24.854Z,98988.67
2022-12-12T08:23:30.868Z,98987.62
2022-12-12T08:28:36.737Z,98985.19
2022-12-12T08:33:42.513Z,98986.52
2022-12-12T08:38:48.674Z,98990.62
2022-12-12T08:43:54.704Z,98989.92
2022-12-12T08:49:00.732Z,98990.75
2022-12-12T08:54:07.337Z,98993.96
2022-12-12T08:59:13.490Z,98993.41
2022-12-12T09:04:19.498Z,98994.70
2022-12-12T09:09:25.611Z,98992.21
2022-12-12T09:14:31.242Z,98994.41
2022-12-12T09:19:36.902Z,98996.11
2022-12-12T09:24:43.052Z,98994.22
2022-12-12T09:29:48.791Z,98990.23
2022-12-12T09:34:54.652Z,98991.21
2022-12-12T09:40:00.517Z,98991.35
2022-12-12T09:45:08.982Z,98995.19
2022-12-12T09:50:22.818Z,98999.72
2022-12-12T09:55:39.988Z,99004.45
2022-12-12T10:00:52.025Z,99013.63
2022-12-12T10:11:52.915Z,99018.75
2022-12-12T10:17:00.122Z,99021.48
2022-12-12T10:22:15.154Z,99019.85
2022-12-12T10:27:26.066Z,99019.17
2022-12-12T10:32:44.621Z,99016.11
2022-12-12T10:38:12.039Z,99012.23
2022-12-12T10:43:18.890Z,99009.98
2022-12-12T10:48:24.873Z,99009.52
2022-12-12T10:53:32.354Z,99010.14
2022-12-12T10:58:40.720Z,99011.38
2022-12-12T11:03:49.586Z,99015.15
2022-12-12T11:08:57.921Z,99012.43
2022-12-12T11:14:21.379Z,99003.27
2022-12-12T11:19:39.146Z,99010.90
2022-12-12T11:24:47.576Z,99015.45
2022-12-12T11:29:55.730Z,99013.33
2022-12-12T11:35:04.834Z,99011.56
2022-12-12T11:40:24.822Z,99007.76
2022-12-12T11:45:30.809Z,99010.34
2022-12-12T11:50:46.473Z,99011.95
2022-12-12T11:56:00.286Z,99017.23
2022-12-12T12:01:16.668Z,99022.17
2022-12-12T12:06:35.854Z,99032.01
2022-12-12T12:11:54.745Z,99035.20
2022-12-12T12:17:09.110Z,99032.23
2022-12-12T12:22:27.196Z,99038.92
2022-12-12T12:27:41.892Z,99044.95
2022-12-12T12:33:06.860Z,99045.36
2022-12-12T12:38:24.442Z,99046.80
2022-12-12T12:43:47.839Z,99049.23
2022-12-12T12:48:58.845Z,99048.58
2022-12-12T12:54:05.535Z,99048.65
2022-12-12T12:59:18.346Z,99054.74
2022-12-12T13:04:27.232Z,99054.98
2022-12-12T13:09:38.703Z,99060.50
2022-12-12T13:14:49.479Z,99061.59
2022-12-12T13:19:57.886Z,99062.67
2022-12-12T13:25:10.688Z,99066.64
2022-12-12T13:30:23.384Z,99066.67
2022-12-12T13:35:33.959Z,99070.64
2022-12-12T13:40:42.445Z,99072.21
2022-12-12T13:45:48.541Z,99080.27
2022-12-12T13:51:36.140Z,99080.79
2022-12-12T13:56:43.628Z,99085.61
2022-12-12T14:01:50.560Z,99086.48
2022-12-12T14:07:05.116Z,99087.52
2022-12-12T14:12:22.751Z,99088.54
2022-12-12T14:17:40.077Z,99089.92
2022-12-12T14:23:10.539Z,99093.88
2022-12-12T14:28:24.930Z,99097.30
2022-12-12T14:34:01.914Z,99099.70
2022-12-12T14:39:20.168Z,99101.41
2022-12-12T14:44:37.559Z,99104.83
2022-12-12T14:49:55.965Z,99103.63
2022-12-12T14:55:05.356Z,99103.96
2022-12-12T15:00:19.931Z,99109.27
2022-12-12T15:05:25.827Z,99111.84
2022-12-12T15:10:33.267Z,99111.33
2022-12-12T15:15:39.269Z,99121.23
2022-12-12T15:20:45.130Z,99120.70
2022-12-12T15:25:56.512Z,99121.22
2022-12-12T15:31:02.389Z,99123.29
2022-12-12T15:36:21.330Z,99124.84
2022-12-12T15:41:29.456Z,99127.20
2022-12-12T15:46:36.212Z,99126.17
2022-12-12T15:51:42.618Z,99127.54
2022-12-12T15:56:52.200Z,99129.59
2022-12-12T16:02:12.736Z,99133.35
2022-12-12T16:07:24.091Z,99135.72
2022-12-12T16:13:01.207Z,99142.39
2022-12-12T16:18:17.605Z,99145.13
2022-12-12T16:23:31.269Z,99146.17
2022-12-12T16:28:37.546Z,99150.44
2022-12-12T16:33:43.382Z,99155.91
2022-12-12T16:38:49.069Z,99151.48
2022-12-12T16:43:55.269Z,99156.45
2022-12-12T16:49:04.772Z,99158.83
2022-12-12T16:54:16.980Z,99169.95
2022-12-12T16:59:22.641Z,99168.93
2022-12-12T17:04:28.374Z,99170.33
2022-12-12T17:09:35.191Z,99177.36
2022-12-12T17:14:40.925Z,99180.94
2022-12-12T17:19:46.621Z,99185.03
2022-12-12T17:24:52.542Z,99192.55
2022-12-12T17:29:58.196Z,99200.92
2022-12-12T17:35:06.266Z,99205.88
2022-12-12T17:40:13.779Z,99213.56
2022-12-12T17:45:20.057Z,99212.20
2022-12-12T17:50:25.960Z,99216.30
2022-12-12T17:55:54.531Z,99225.19
2022-12-12T18:00:57.485Z,99234.77
2022-12-12T18:06:03.382Z,99240.23
2022-12-12T18:11:10.614Z,99239.71
2022-12-12T18:16:18.485Z,99240.24
2022-12-12T18:26:55.708Z,99242.11
2022-12-12T18:32:01.612Z,99246.21
2022-12-12T18:37:07.687Z,99252.02
2022-12-12T18:42:13.523Z,99255.95
2022-12-12T18:47:19.624Z,99263.47
2022-12-12T18:52:25.281Z,99271.34
2022-12-12T18:57:31.191Z,99274.59
2022-12-12T19:02:38.578Z,99279.20
2022-12-12T19:07:47.060Z,99286.71
2022-12-12T19:12:53.328Z,99299.00
2022-12-12T19:17:59.185Z,99306.66
2022-12-12T19:23:04.867Z,99314.83
2022-12-12T19:28:11.542Z,99323.15
2022-12-12T19:33:17.330Z,99326.85
2022-12-12T19:38:24.696Z,99338.42
2022-12-12T19:43:31.639Z,99345.05
2022-12-12T19:48:38.150Z,99350.47
2022-12-12T19:53:45.929Z,99363.39
2022-12-12T19:58:52.762Z,99367.77
2022-12-12T20:04:02.556Z,99376.30
2022-12-12T20:09:09.041Z,99377.50
2022-12-12T20:14:17.528Z,99381.39
2022-12-12T20:19:25.042Z,99388.84
2022-12-12T20:24:31.823Z,99390.52
2022-12-12T20:29:37.613Z,99395.13
2022-12-12T20:34:43.381Z,99399.88
2022-12-12T20:39:49.387Z,99397.13
2022-12-12T20:44:55.064Z,99400.90
2022-12-12T20:50:01.144Z,99406.34
2022-12-12T20:55:09.136Z,99411.95
2022-12-12T21:00:15.966Z,99421.70
2022-12-12T21:05:22.005Z,99430.13
2022-12-12T21:10:27.779Z,99432.34
2022-12-12T21:15:33.598Z,99438.45
2022-12-12T21:20:43.285Z,99443.20
2022-12-12T21:25:49.033Z,99448.10
2022-12-12T21:30:54.929Z,99458.26
2022-12-12T21:36:06.934Z,99458.89
2022-12-12T21:41:15.055Z,99462.13
2022-12-12T21:46:22.717Z,99464.98
2022-12-12T21:51:28.587Z,99474.16
2022-12-12T21:56:34.377Z,99475.51
2022-12-12T22:01:40.973Z,99476.15
2022-12-12T22:06:47.570Z,99485.46
2022-12-12T22:12:04.139Z,99488.04
2022-12-12T22:17:10.484Z,99491.77
2022-12-12T22:22:16.320Z,99489.55
2022-12-12T22:27:22.366Z,99494.39
2022-12-12T22:32:29.254Z,99501.13
2022-12-12T22:37:35.211Z,99503.91
2022-12-12T22:42:40.985Z,99503.23
2022-12-12T22:47:46.801Z,99507.23
2022-12-12T22:52:53.183Z,99509.36
2022-12-12T22:57:59.786Z,99514.23
2022-12-12T23:03:06.132Z,99527.13
2022-12-12T23:08:11.808Z,99528.75
2022-12-12T23:13:17.703Z,99532.16
2022-12-12T23:18:23.531Z,99533.22
2022-12-12T23:23:31.811Z,99541.10
2022-12-12T23:28:38.542Z,99545.75
2022-12-12T23:33:44.843Z,99557.73
2022-12-12T23:38:53.850Z,99562.42
2022-12-12T23:43:59.665Z,99567.99
2022-12-12T23:49:09.161Z,99568.21
2022-12-12T23:54:18.203Z,99569.09
2022-12-12T23:59:23.875Z,99570.80
